Huvudsida
METAR-TAF:

METAR-TAF

Flygplatser :

Gurayat, Saudiarabien

latitud: 31-24N, longitud: 037-16E, höjd: 509 m

Aktuellt väderrapport

Denna rapport gjordes för 37 minuter sedan, klockan 19:00 UTC
Vind 12 kt från väst
Temperatur 14°C
Fuktighet 51%
Tryck 1014 hPa
Sikt 10 km eller mer
Inga moln under 1 500 m eller inga cumulonimbus

METAR: OEGT 281900Z 27012KT CAVOK 14/04 Q1014 NOSIG

Tid: 22:37 (19:37 UTC)

Väderprognos

Denna rapport gjordes för 8 timmar och 37 minuter sedan, klockan 11:00 UTC
Prognos gäller från 28 kl. 12 UTC till 29 kl. 18 UTC
Vind 12 kt från nord/nordväst
Sikt 10 km eller mer
Inga moln under 1 500 m eller inga cumulonimbus

TAF: OEGT 281100Z 2812/2918 34012KT CAVOK

Aktuella väderrapporter och prognoser från 4000 flygplatser (METAR- och TAF-rapporter).

De tillgängliga stationerna syns som gula och röda prickar på kartan.

För musen över prickarna för att se namnen på stationerna.

Klicka sedan för att få väderrapporter och prognoser.

För att ändra kartan: Klicka på de gröna knapparna med ett svart kors på för att zooma in; den gröna knappen med ett streck på för att zooma ut; eller på de gröna pilarna för angränsande kartor.


METAR-TAF: